Flight Track Log - Related Links

Times and Time Zones

All times are in EDT time to prevent confusion due to time zone crossing. See the SKW6306 flight status page for this flight to view local times or setup timezone preferences in your user account.

Time Position Orientation Groundspeed Altitude Reporting Facility
EDT Latitude Longitude Course Direction KTS MPH feet Rate Location/Type
Fri 04:44:36 PM 52.1500 -106.8000 270° West 170 196 3,300  Level Winnipeg Center
Fri 04:45:36 PM 52.1000 -106.8500 212° Southwest 240 276 5,500 2,050 Climbing Winnipeg Center
Fri 04:46:36 PM 52.0167 -106.8667 187° South 270 311 7,400 2,100 Climbing Winnipeg Center
Fri 04:47:00 PM 51.6974 -106.9514 197° South  Level FlightAware Approximate
Fri 04:47:36 PM 51.9500 -106.9333 212° Southwest 300 345 9,700  Level Winnipeg Center
Fri 04:48:00 PM 51.5799 -107.0108 198° South  Level FlightAware Approximate
Fri 04:48:36 PM 51.8667 -106.9667 194° South 310 357 12,000  Level Winnipeg Center
Fri 04:49:00 PM 51.4608 -106.9812 171° South  Level Estimated
Fri 04:49:36 PM 51.7833 -107.0000 194° South 330 380 13,600  Level Winnipeg Center
Fri 04:50:36 PM 51.6833 -107.0333 192° South 350 403 15,300 1,700 Climbing Winnipeg Center
Fri 04:51:36 PM 51.5833 -107.0833 197° South 360 414 17,000 1,400 Climbing Winnipeg Center
Fri 04:52:36 PM 51.5000 -107.1500 206° Southwest 370 426 18,100 1,150 Climbing Winnipeg Center
Fri 04:53:36 PM 51.3833 -107.1833 190° South 380 437 19,300 1,250 Climbing Winnipeg Center
Fri 04:54:36 PM 51.2833 -107.2333 197° South 380 437 20,600 1,200 Climbing Winnipeg Center
Fri 04:55:36 PM 51.1833 -107.3000 203° Southwest 380 437 21,700 1,000 Climbing Winnipeg Center
Fri 04:56:36 PM 51.0667 -107.3500 195° South 390 449 22,600 1,000 Climbing Winnipeg Center
Fri 04:57:36 PM 50.9667 -107.3833 192° South 410 472 23,700 1,000 Climbing Winnipeg Center
Fri 04:58:36 PM 50.8667 -107.4333 198° South 410 472 24,600 850 Climbing Winnipeg Center
Fri 04:59:36 PM 50.7500 -107.5000 200° South 410 472 25,400 800 Climbing Winnipeg Center
Fri 05:00:36 PM 50.6333 -107.5500 195° South 420 483 26,200 800 Climbing Winnipeg Center
Fri 05:01:36 PM 50.5333 -107.6000 198° South 420 483 27,000 700 Climbing Winnipeg Center
Fri 05:02:36 PM 50.4167 -107.6500 195° South 430 495 27,600 600 Climbing Winnipeg Center
Fri 05:03:36 PM 50.3000 -107.7000 195° South 430 495 28,200 650 Climbing Winnipeg Center
Fri 05:04:36 PM 50.1833 -107.7333 190° South 440 506 28,900 600 Climbing Winnipeg Center
Fri 05:05:36 PM 50.0333 -107.7500 184° South 450 518 29,400 650 Climbing Winnipeg Center
Fri 05:06:36 PM 49.9167 -107.7500 180° South 450 518 30,200 700 Climbing Winnipeg Center
Fri 05:07:36 PM 49.8000 -107.7667 185° South 450 518 30,800 600 Climbing Winnipeg Center
Fri 05:08:36 PM 49.6833 -107.8000 190° South 440 506 31,400 550 Climbing Winnipeg Center
Fri 05:09:36 PM 49.5667 -107.8000 180° South 450 518 31,900 550 Climbing Winnipeg Center
Fri 05:10:36 PM 49.4333 -107.8167 185° South 450 518 32,500 550 Climbing Winnipeg Center
Fri 05:11:36 PM 49.3167 -107.8167 180° South 440 506 33,000 250 Climbing Winnipeg Center
Fri 05:12:36 PM 49.1833 -107.8500 189° South 450 518 33,000  Level Winnipeg Center
Fri 05:13:36 PM 49.0667 -107.8667 185° South 440 506 33,000  Level Winnipeg Center
Fri 05:14:36 PM 48.9500 -107.8667 180° South 450 518 33,000  Level Winnipeg Center
Fri 05:15:36 PM 48.8167 -107.8833 185° South 460 529 33,000  Level Winnipeg Center
Fri 05:16:36 PM 48.7000 -107.9167 191° South 450 518 33,000  Level Winnipeg Center
Fri 05:17:36 PM 48.5667 -107.9000 175° South 460 529 33,000  Level Winnipeg Center
Fri 05:18:36 PM 48.4333 -107.9333 189° South 460 529 33,000  Level Winnipeg Center
Fri 05:19:36 PM 48.3167 -107.9500 185° South 460 529 33,000  Level Winnipeg Center
Fri 05:20:36 PM 48.1833 -107.9500 180° South 470 541 33,000  Level Winnipeg Center
Fri 05:21:36 PM 48.0500 -107.9667 185° South 460 529 33,000  Level Winnipeg Center
Fri 05:22:36 PM 47.9167 -107.9833 185° South 460 529 33,000  Level Winnipeg Center
Fri 05:23:36 PM 47.8000 -107.9833 180° South 460 529 33,000  Level Winnipeg Center
Fri 05:24:36 PM 47.6667 -108.0167 190° South 450 518 33,000  Level Winnipeg Center
Fri 05:25:36 PM 47.5333 -108.0333 185° South 450 518 33,000 -40 Level Winnipeg Center
Fri 05:27:06 PM 47.3836 -107.9575 161° South 458 527 32,900  Descending Salt Lake Center
Fri 05:28:08 PM 47.2586 -107.9108 166° South 462 532 33,000 48 Climbing Salt Lake Center
Fri 05:29:10 PM 47.1344 -107.8661 166° South 461 531 33,000  Level Salt Lake Center
Fri 05:30:12 PM 47.0000 -107.8153 166° South 463 533 33,000  Level Salt Lake Center
Fri 05:31:14 PM 46.8767 -107.7711 166° South 461 531 33,000  Level Salt Lake Center
Fri 05:32:16 PM 46.7531 -107.7264 166° South 459 528 33,000  Level Salt Lake Center
Fri 05:33:18 PM 46.6153 -107.6747 166° South 459 528 33,000  Level Salt Lake Center
Fri 05:34:20 PM 46.4794 -107.6264 166° South 464 534 33,000  Level Salt Lake Center
Fri 05:35:22 PM 46.3558 -107.5817 166° South 464 534 33,000  Level Salt Lake Center
Fri 05:36:24 PM 46.2203 -107.5347 167° South 462 532 33,000  Level Salt Lake Center
Fri 05:37:26 PM 46.0956 -107.4897 166° South 466 536 33,000  Level Salt Lake Center
Fri 05:38:28 PM 45.9600 -107.4425 166° South 467 537 33,000  Level Salt Lake Center
Fri 05:39:30 PM 45.8333 -107.3981 166° South 472 543 33,000  Level Salt Lake Center
Fri 05:40:32 PM 45.6961 -107.3525 167° South 474 545 33,000  Level Salt Lake Center
Fri 05:41:34 PM 45.5692 -107.3072 166° South 472 543 33,000  Level Salt Lake Center
Fri 05:42:36 PM 45.4325 -107.2608 167° South 472 543 33,000  Level Salt Lake Center
Fri 05:43:38 PM 45.3033 -107.2183 167° South 466 536 33,000  Level Salt Lake Center
Fri 05:44:40 PM 45.1844 -107.1794 167° South 467 537 33,000  Level Salt Lake Center
Fri 05:45:42 PM 45.0428 -107.1306 166° South 470 541 33,000  Level Salt Lake Center
Fri 05:46:44 PM 44.9206 -107.0878 166° South 472 543 33,000  Level Salt Lake Center
Fri 05:47:46 PM 44.7786 -107.0444 168° South 468 539 33,000  Level Salt Lake Center
Fri 05:48:48 PM 44.6578 -107.0136 170° South 463 533 33,000  Level Salt Lake Center
Fri 05:49:50 PM 44.5361 -106.9847 170° South 463 533 33,000  Level Salt Lake Center
Fri 05:50:52 PM 44.3947 -106.9478 169° South 463 533 33,000  Level Salt Lake Center
Fri 05:51:54 PM 44.2742 -106.9183 170° South 460 529 33,000  Level Salt Lake Center
Fri 05:52:56 PM 44.1331 -106.8842 170° South 460 529 33,000  Level Salt Lake Center
Fri 05:53:58 PM 44.0122 -106.8533 170° South 461 531 33,000  Level Salt Lake Center
Fri 05:54:59 PM 43.8714 -106.8178 170° South 461 531 33,000  Level Salt Lake Center
Fri 05:55:35 PM 43.7897 -106.7972 170° South 463 533 33,000  Level Denver Center
Fri 05:56:37 PM 43.6683 -106.7669 170° South 462 532 33,000  Level Denver Center
Fri 05:57:39 PM 43.5481 -106.7369 170° South 461 531 33,000  Level Denver Center
Fri 05:58:41 PM 43.4072 -106.7036 170° South 460 529 33,000  Level Denver Center
Fri 05:59:43 PM 43.2875 -106.6739 170° South 458 527 33,000  Level Denver Center
Fri 06:00:45 PM 43.1467 -106.6394 170° South 460 529 33,000  Level Denver Center
Fri 06:01:47 PM 43.0264 -106.6131 171° South 458 527 33,000  Level Denver Center
Fri 06:02:49 PM 42.8864 -106.5786 170° South 459 528 33,000  Level Denver Center
Fri 06:03:51 PM 42.7672 -106.5489 170° South 457 526 33,000  Level Denver Center
Fri 06:04:52 PM 42.6261 -106.5167 170° South 460 529 33,000  Level Denver Center
Fri 06:05:54 PM 42.5050 -106.4886 170° South 462 532 33,000  Level Denver Center
Fri 06:06:56 PM 42.3647 -106.4542 170° South 458 527 33,000  Level Denver Center
Fri 06:07:58 PM 42.2439 -106.4258 170° South 460 529 33,000  Level Denver Center
Fri 06:09:00 PM 42.1033 -106.3928 170° South 461 531 33,000  Level Denver Center
Fri 06:10:02 PM 41.9822 -106.3650 170° South 460 529 33,000  Level Denver Center
Fri 06:11:04 PM 41.8431 -106.3325 170° South 457 526 33,000  Level Denver Center
Fri 06:12:06 PM 41.7228 -106.3053 170° South 458 527 33,000  Level Denver Center
Fri 06:13:07 PM 41.6225 -106.2817 170° South 459 528 33,000  Level Denver Center
Fri 06:14:10 PM 41.4633 -106.2442 170° South 457 526 33,000  Level Denver Center
Fri 06:15:12 PM 41.3578 -106.1675 151° Southeast 456 525 33,000  Level Denver Center
Fri 06:16:14 PM 41.2475 -106.0467 141° Southeast 462 532 33,000  Level Denver Center
Fri 06:17:16 PM 41.1528 -105.9444 141° Southeast 460 529 33,000  Level Denver Center
Fri 06:18:18 PM 41.0428 -105.8267 141° Southeast 457 526 33,000 -439 Level Denver Center
Fri 06:19:19 PM 40.9564 -105.7322 140° Southeast 463 533 32,100 -1,742 Descending Denver Center
Fri 06:20:22 PM 40.8311 -105.5992 141° Southeast 481 554 29,400 -2,758 Descending Denver Center
Fri 06:21:23 PM 40.7297 -105.4894 141° Southeast 475 547 26,400 -2,927 Descending Denver Center
Fri 06:22:25 PM 40.6300 -105.3856 142° Southeast 462 532 23,400 -2,234 Descending Denver Center
Fri 06:23:40 PM 40.5189 -105.2678 141° Southeast 434 499 21,300 -1,883 Descending Denver Center
Fri 06:24:42 PM 40.4172 -105.1778 146° Southeast 410 472 19,100 -1,887 Descending Denver Center
Fri 06:25:44 PM 40.3156 -105.0947 148° Southeast 401 461 17,400 -1,839 Descending Denver Center
Fri 06:26:46 PM 40.2172 -105.0186 149° Southeast 408 470 15,300 -1,500 Descending Denver Center
Fri 06:27:48 PM 40.1272 -104.9458 148° Southeast 379 436 14,300 -1,024 Descending Denver Center
Fri 06:28:49 PM 40.0422 -104.8781 149° Southeast 337 388 13,200 -878 Descending Denver Center
Fri 06:29:51 PM 39.9647 -104.8167 149° Southeast 327 376 12,500 -919 Descending Denver Center
Fri 06:30:53 PM 39.8708 -104.8072 176° South 320 368 11,300 -677 Descending Denver Center
Fri 06:31:55 PM 39.7839 -104.8094 181° South 318 366 11,100 -581 Descending Denver Center
Fri 06:32:57 PM 39.6989 -104.8050 178° South 285 328 10,100 -1,065 Descending Denver Center
Fri 06:33:59 PM 39.6892 -104.7283 99° East 244 281 8,900 -1,161 Descending Denver Center

Login

Don't have an account? Register now (free) for customized features, flight alerts, and more!